KOOA/OOA METAR and TAF weather

Enter ICAO airport designator
Station Type Date Time Source
KOOA METAR 2021/05/11 22:35 UTC NOAA

KOOA 112235Z AUTO 11007KT 10SM CLR 17/M03 A3032 RMK AO2 T01651034


Station Type Date Time Source
KOOA Decoded METAR 2021/05/11 22:35 UTC NOAA

Oskaloosa, Oskaloosa Municipal Airport, IA, United States (KOOA) 41-13-34N 092-29-37W
May 11, 2021 - 06:35 PM EDT / 2021.05.11 2235 UTC
Wind: from the ESE (110 degrees) at 8 MPH (7 KT):0
Visibility: 10 mile(s):0
Sky conditions: clear
Temperature: 61.7 F (16.5 C)
Dew Point: 25.9 F (-3.4 C)
Relative Humidity: 25%
Pressure (altimeter): 30.32 in. Hg (1026 hPa)
ob: KOOA 112235Z AUTO 11007KT 10SM CLR 17/M03 A3032 RMK AO2 T01651034
cycle: 22

Station Type Date Time Source
KOOA TAF UTC NOAA

Error!

Example: see airport list